sensor_id;sensor_type;location;lat;lon;timestamp;pressure;altitude;pressure_sealevel;temperature;humidity
46876;BME280;32866;50.160;14.768;2022-09-09T00:00:40;99092.72;;;14.75;100.00
46876;BME280;32866;50.160;14.768;2022-09-09T00:03:23;99056.13;;;14.50;100.00
46876;BME280;32866;50.160;14.768;2022-09-09T00:05:58;99102.47;;;14.61;100.00
46876;BME280;32866;50.160;14.768;2022-09-09T00:08:53;99099.44;;;14.59;100.00
46876;BME280;32866;50.160;14.768;2022-09-09T00:11:29;99102.47;;;14.61;100.00
46876;BME280;32866;50.160;14.768;2022-09-09T00:14:00;99087.63;;;14.58;100.00
46876;BME280;32866;50.160;14.768;2022-09-09T00:16:32;99100.13;;;14.44;100.00
46876;BME280;32866;50.160;14.768;2022-09-09T00:19:08;99093.66;;;14.47;100.00
46876;BME280;32866;50.160;14.768;2022-09-09T00:21:38;99098.06;;;14.54;100.00
46876;BME280;32866;50.160;14.768;2022-09-09T00:24:41;99095.19;;;14.48;100.00
46876;BME280;32866;50.160;14.768;2022-09-09T00:30:18;99099.53;;;14.40;100.00
46876;BME280;32866;50.160;14.768;2022-09-09T00:32:49;99099.72;;;14.37;100.00
46876;BME280;32866;50.160;14.768;2022-09-09T00:35:37;99067.91;;;14.12;100.00
46876;BME280;32866;50.160;14.768;2022-09-09T00:38:14;99085.13;;;13.97;100.00
46876;BME280;32866;50.160;14.768;2022-09-09T00:41:09;99106.72;;;14.23;100.00
46876;BME280;32866;50.160;14.768;2022-09-09T00:43:38;99098.69;;;14.10;100.00
46876;BME280;32866;50.160;14.768;2022-09-09T00:54:33;99120.75;;;13.77;100.00
46876;BME280;32866;50.160;14.768;2022-09-09T00:57:26;99124.13;;;13.71;100.00
46876;BME280;32866;50.160;14.768;2022-09-09T01:02:52;99136.41;;;13.61;100.00
46876;BME280;32866;50.160;14.768;2022-09-09T01:05:56;99131.84;;;13.58;100.00
46876;BME280;32866;50.160;14.768;2022-09-09T01:11:14;99133.09;;;13.48;100.00
46876;BME280;32866;50.160;14.768;2022-09-09T01:13:41;99113.38;;;13.40;100.00
46876;BME280;32866;50.160;14.768;2022-09-09T01:16:10;99136.59;;;13.58;100.00
46876;BME280;32866;50.160;14.768;2022-09-09T01:18:44;99137.69;;;13.51;100.00
46876;BME280;32866;50.160;14.768;2022-09-09T01:21:46;99128.81;;;13.47;100.00
46876;BME280;32866;50.160;14.768;2022-09-09T01:24:27;99124.97;;;13.53;100.00
46876;BME280;32866;50.160;14.768;2022-09-09T01:26:59;99109.91;;;13.12;100.00
46876;BME280;32866;50.160;14.768;2022-09-09T01:29:26;99098.19;;;13.02;100.00
46876;BME280;32866;50.160;14.768;2022-09-09T01:34:20;99124.44;;;13.12;100.00
46876;BME280;32866;50.160;14.768;2022-09-09T01:37:02;99120.63;;;13.10;100.00
46876;BME280;32866;50.160;14.768;2022-09-09T01:39:30;99122.91;;;13.11;100.00
46876;BME280;32866;50.160;14.768;2022-09-09T01:41:56;99114.38;;;13.00;100.00
46876;BME280;32866;50.160;14.768;2022-09-09T01:44:22;99104.47;;;12.84;100.00
46876;BME280;32866;50.160;14.768;2022-09-09T01:46:48;99114.81;;;12.98;100.00
46876;BME280;32866;50.160;14.768;2022-09-09T01:49:13;99113.91;;;13.02;100.00
46876;BME280;32866;50.160;14.768;2022-09-09T01:51:38;99115.16;;;13.01;100.00
46876;BME280;32866;50.160;14.768;2022-09-09T01:54:06;99113.91;;;13.02;100.00
46876;BME280;32866;50.160;14.768;2022-09-09T01:57:31;99118.97;;;12.94;100.00
46876;BME280;32866;50.160;14.768;2022-09-09T02:00:10;99117.16;;;12.91;100.00
46876;BME280;32866;50.160;14.768;2022-09-09T02:03:05;99122.47;;;12.85;100.00
46876;BME280;32866;50.160;14.768;2022-09-09T02:05:40;99123.44;;;12.82;100.00
46876;BME280;32866;50.160;14.768;2022-09-09T02:08:16;99118.22;;;12.75;100.00
46876;BME280;32866;50.160;14.768;2022-09-09T02:10:55;99122.97;;;12.74;100.00
46876;BME280;32866;50.160;14.768;2022-09-09T02:13:21;99128.78;;;12.67;100.00
46876;BME280;32866;50.160;14.768;2022-09-09T02:15:56;99133.94;;;12.65;100.00
46876;BME280;32866;50.160;14.768;2022-09-09T02:18:30;99132.59;;;12.60;100.00
46876;BME280;32866;50.160;14.768;2022-09-09T02:20:58;99130.75;;;12.57;100.00
46876;BME280;32866;50.160;14.768;2022-09-09T02:23:24;99136.84;;;12.80;100.00
46876;BME280;32866;50.160;14.768;2022-09-09T02:25:50;99134.41;;;12.54;100.00
46876;BME280;32866;50.160;14.768;2022-09-09T02:28:17;99123.72;;;12.47;100.00
46876;BME280;32866;50.160;14.768;2022-09-09T02:30:48;99113.03;;;12.58;100.00
46876;BME280;32866;50.160;14.768;2022-09-09T02:33:24;99125.09;;;12.52;100.00
46876;BME280;32866;50.160;14.768;2022-09-09T02:35:51;99103.88;;;12.43;100.00
46876;BME280;32866;50.160;14.768;2022-09-09T02:38:20;99141.28;;;12.59;100.00
46876;BME280;32866;50.160;14.768;2022-09-09T02:40:46;99139.44;;;12.56;100.00
46876;BME280;32866;50.160;14.768;2022-09-09T02:43:14;99111.50;;;12.20;100.00
46876;BME280;32866;50.160;14.768;2022-09-09T02:45:51;99125.84;;;12.34;100.00
46876;BME280;32866;50.160;14.768;2022-09-09T02:51:08;99127.06;;;12.33;100.00
46876;BME280;32866;50.160;14.768;2022-09-09T02:54:16;99139.00;;;12.67;100.00
46876;BME280;32866;50.160;14.768;2022-09-09T02:56:46;99130.75;;;12.39;100.00
46876;BME280;32866;50.160;14.768;2022-09-09T02:59:15;99114.56;;;12.32;100.00
46876;BME280;32866;50.160;14.768;2022-09-09T03:01:40;99138.66;;;12.28;100.00
46876;BME280;32866;50.160;14.768;2022-09-09T03:04:06;99111.75;;;12.04;100.00
46876;BME280;32866;50.160;14.768;2022-09-09T03:06:31;99138.06;;;12.23;100.00
46876;BME280;32866;50.160;14.768;2022-09-09T03:08:57;99146.09;;;12.18;100.00
46876;BME280;32866;50.160;14.768;2022-09-09T03:11:24;99140.91;;;12.20;100.00
46876;BME280;32866;50.160;14.768;2022-09-09T03:13:49;99116.66;;;12.00;100.00
46876;BME280;32866;50.160;14.768;2022-09-09T03:16:14;99157.53;;;12.16;100.00
46876;BME280;32866;50.160;14.768;2022-09-09T03:18:40;99156.91;;;12.03;100.00
46876;BME280;32866;50.160;14.768;2022-09-09T03:21:05;99138.63;;;11.78;100.00
46876;BME280;32866;50.160;14.768;2022-09-09T03:23:32;99119.47;;;11.87;100.00
46876;BME280;32866;50.160;14.768;2022-09-09T03:25:57;99150.31;;;11.91;100.00
46876;BME280;32866;50.160;14.768;2022-09-09T03:28:23;99159.31;;;11.92;100.00
46876;BME280;32866;50.160;14.768;2022-09-09T03:30:58;99129.59;;;11.68;100.00
46876;BME280;32866;50.160;14.768;2022-09-09T03:33:23;99124.47;;;11.79;100.00
46876;BME280;32866;50.160;14.768;2022-09-09T03:35:49;99143.97;;;11.81;100.00
46876;BME280;32866;50.160;14.768;2022-09-09T03:38:14;99141.72;;;11.80;100.00
46876;BME280;32866;50.160;14.768;2022-09-09T03:40:39;99170.91;;;11.96;100.00
46876;BME280;32866;50.160;14.768;2022-09-09T03:43:13;99141.84;;;11.76;100.00
46876;BME280;32866;50.160;14.768;2022-09-09T03:45:45;99160.19;;;11.88;100.00
46876;BME280;32866;50.160;14.768;2022-09-09T03:48:12;99130.09;;;11.76;100.00
46876;BME280;32866;50.160;14.768;2022-09-09T03:50:37;99137.66;;;11.53;100.00
46876;BME280;32866;50.160;14.768;2022-09-09T03:53:03;99155.03;;;11.59;100.00
46876;BME280;32866;50.160;14.768;2022-09-09T03:55:28;99164.84;;;11.69;100.00
46876;BME280;32866;50.160;14.768;2022-09-09T03:57:53;99158.31;;;11.76;100.00
46876;BME280;32866;50.160;14.768;2022-09-09T04:00:19;99111.13;;;11.59;100.00
46876;BME280;32866;50.160;14.768;2022-09-09T04:02:44;99134.44;;;11.55;100.00
46876;BME280;32866;50.160;14.768;2022-09-09T04:05:10;99163.41;;;11.56;100.00
46876;BME280;32866;50.160;14.768;2022-09-09T04:07:36;99159.16;;;11.55;100.00
46876;BME280;32866;50.160;14.768;2022-09-09T04:10:01;99164.00;;;11.50;100.00
46876;BME280;32866;50.160;14.768;2022-09-09T04:12:27;99149.66;;;11.46;100.00
46876;BME280;32866;50.160;14.768;2022-09-09T04:14:52;99132.59;;;11.51;100.00
46876;BME280;32866;50.160;14.768;2022-09-09T04:17:17;99162.53;;;11.68;100.00
46876;BME280;32866;50.160;14.768;2022-09-09T04:19:43;99127.94;;;11.39;100.00
46876;BME280;32866;50.160;14.768;2022-09-09T04:22:08;99130.22;;;11.31;100.00
46876;BME280;32866;50.160;14.768;2022-09-09T04:24:34;99120.88;;;11.29;100.00
46876;BME280;32866;50.160;14.768;2022-09-09T04:27:00;99119.03;;;11.26;100.00
46876;BME280;32866;50.160;14.768;2022-09-09T04:29:25;99158.19;;;11.48;100.00
46876;BME280;32866;50.160;14.768;2022-09-09T04:31:51;99162.91;;;11.79;100.00
46876;BME280;32866;50.160;14.768;2022-09-09T04:34:16;99134.41;;;11.45;100.00
46876;BME280;32866;50.160;14.768;2022-09-09T04:36:42;99124.75;;;11.41;100.00
46876;BME280;32866;50.160;14.768;2022-09-09T04:39:07;99160.66;;;11.56;100.00
46876;BME280;32866;50.160;14.768;2022-09-09T04:41:33;99142.31;;;11.43;100.00
46876;BME280;32866;50.160;14.768;2022-09-09T04:43:58;99168.31;;;11.61;100.00
46876;BME280;32866;50.160;14.768;2022-09-09T04:46:25;99175.94;;;11.66;100.00
46876;BME280;32866;50.160;14.768;2022-09-09T04:48:51;99172.22;;;11.50;100.00
46876;BME280;32866;50.160;14.768;2022-09-09T04:51:17;99163.34;;;11.78;100.00
46876;BME280;32866;50.160;14.768;2022-09-09T04:53:43;99136.31;;;11.67;100.00
46876;BME280;32866;50.160;14.768;2022-09-09T04:56:11;99161.97;;;11.73;100.00
46876;BME280;32866;50.160;14.768;2022-09-09T04:58:37;99156.28;;;11.67;100.00
46876;BME280;32866;50.160;14.768;2022-09-09T05:01:10;99171.13;;;12.11;100.00
46876;BME280;32866;50.160;14.768;2022-09-09T05:03:36;99161.47;;;11.97;100.00
46876;BME280;32866;50.160;14.768;2022-09-09T05:06:03;99172.31;;;12.00;100.00
46876;BME280;32866;50.160;14.768;2022-09-09T05:08:29;99142.63;;;11.86;100.00
46876;BME280;32866;50.160;14.768;2022-09-09T05:10:54;99140.69;;;11.86;100.00
46876;BME280;32866;50.160;14.768;2022-09-09T05:13:20;99151.25;;;11.97;100.00
46876;BME280;32866;50.160;14.768;2022-09-09T05:15:52;99178.28;;;12.08;100.00
46876;BME280;32866;50.160;14.768;2022-09-09T05:18:18;99150.41;;;11.87;100.00
46876;BME280;32866;50.160;14.768;2022-09-09T05:20:43;99153.06;;;11.91;100.00
46876;BME280;32866;50.160;14.768;2022-09-09T05:23:08;99159.75;;;11.90;100.00
46876;BME280;32866;50.160;14.768;2022-09-09T05:25:36;99151.31;;;11.84;100.00
46876;BME280;32866;50.160;14.768;2022-09-09T05:28:01;99182.41;;;12.03;100.00
46876;BME280;32866;50.160;14.768;2022-09-09T05:30:27;99183.31;;;12.00;100.00
46876;BME280;32866;50.160;14.768;2022-09-09T05:32:55;99190.50;;;12.16;100.00
46876;BME280;32866;50.160;14.768;2022-09-09T05:35:20;99161.69;;;12.12;100.00
46876;BME280;32866;50.160;14.768;2022-09-09T05:37:46;99171.78;;;12.24;100.00
46876;BME280;32866;50.160;14.768;2022-09-09T05:40:11;99147.47;;;12.13;100.00
46876;BME280;32866;50.160;14.768;2022-09-09T05:42:37;99165.94;;;12.13;100.00
46876;BME280;32866;50.160;14.768;2022-09-09T05:45:04;99166.88;;;12.28;100.00
46876;BME280;32866;50.160;14.768;2022-09-09T05:47:29;99186.31;;;12.43;100.00
46876;BME280;32866;50.160;14.768;2022-09-09T05:49:55;99184.50;;;12.49;100.00
46876;BME280;32866;50.160;14.768;2022-09-09T05:52:20;99189.09;;;12.71;100.00
46876;BME280;32866;50.160;14.768;2022-09-09T05:54:45;99191.69;;;12.84;100.00
46876;BME280;32866;50.160;14.768;2022-09-09T05:57:11;99177.19;;;12.74;100.00
46876;BME280;32866;50.160;14.768;2022-09-09T05:59:42;99176.25;;;12.68;100.00
46876;BME280;32866;50.160;14.768;2022-09-09T06:02:09;99171.69;;;12.74;100.00
46876;BME280;32866;50.160;14.768;2022-09-09T06:04:34;99179.94;;;12.74;100.00
46876;BME280;32866;50.160;14.768;2022-09-09T06:07:00;99180.53;;;12.78;100.00
46876;BME280;32866;50.160;14.768;2022-09-09T06:09:25;99191.09;;;12.79;100.00
46876;BME280;32866;50.160;14.768;2022-09-09T06:11:50;99180.84;;;12.80;100.00
46876;BME280;32866;50.160;14.768;2022-09-09T06:14:16;99165.56;;;12.70;100.00
46876;BME280;32866;50.160;14.768;2022-09-09T06:16:43;99190.94;;;12.83;100.00
46876;BME280;32866;50.160;14.768;2022-09-09T06:19:09;99186.06;;;12.87;100.00
46876;BME280;32866;50.160;14.768;2022-09-09T06:21:35;99184.34;;;12.90;100.00
46876;BME280;32866;50.160;14.768;2022-09-09T06:24:02;99198.41;;;12.92;100.00
46876;BME280;32866;50.160;14.768;2022-09-09T06:26:30;99204.38;;;12.90;100.00
46876;BME280;32866;50.160;14.768;2022-09-09T06:28:57;99205.44;;;12.93;100.00
46876;BME280;32866;50.160;14.768;2022-09-09T06:31:25;99197.78;;;12.97;100.00
46876;BME280;32866;50.160;14.768;2022-09-09T06:33:52;99202.22;;;13.13;100.00
46876;BME280;32866;50.160;14.768;2022-09-09T06:36:23;99208.66;;;13.19;100.00
46876;BME280;32866;50.160;14.768;2022-09-09T06:38:49;99212.31;;;13.16;100.00
46876;BME280;32866;50.160;14.768;2022-09-09T06:41:17;99212.75;;;13.24;100.00
46876;BME280;32866;50.160;14.768;2022-09-09T06:43:44;99205.28;;;13.33;100.00
46876;BME280;32866;50.160;14.768;2022-09-09T06:46:16;99217.19;;;13.49;100.00
46876;BME280;32866;50.160;14.768;2022-09-09T06:48:43;99206.16;;;13.30;100.00
46876;BME280;32866;50.160;14.768;2022-09-09T06:51:20;99189.81;;;13.27;100.00
46876;BME280;32866;50.160;14.768;2022-09-09T06:53:54;99220.06;;;13.64;100.00
46876;BME280;32866;50.160;14.768;2022-09-09T06:56:22;99216.84;;;13.65;100.00
46876;BME280;32866;50.160;14.768;2022-09-09T06:58:49;99214.03;;;13.84;100.00
46876;BME280;32866;50.160;14.768;2022-09-09T07:01:16;99213.47;;;14.13;100.00
46876;BME280;32866;50.160;14.768;2022-09-09T07:03:45;99218.97;;;14.46;100.00
46876;BME280;32866;50.160;14.768;2022-09-09T07:06:20;99218.97;;;14.95;100.00
46876;BME280;32866;50.160;14.768;2022-09-09T07:08:50;99215.09;;;15.16;100.00
46876;BME280;32866;50.160;14.768;2022-09-09T07:11:16;99216.75;;;15.53;100.00
46876;BME280;32866;50.160;14.768;2022-09-09T07:13:41;99226.25;;;15.97;100.00
46876;BME280;32866;50.160;14.768;2022-09-09T07:16:12;99219.13;;;16.25;100.00
46876;BME280;32866;50.160;14.768;2022-09-09T07:18:39;99225.00;;;16.48;100.00
46876;BME280;32866;50.160;14.768;2022-09-09T07:21:04;99222.72;;;16.67;100.00
46876;BME280;32866;50.160;14.768;2022-09-09T07:23:30;99222.03;;;16.72;100.00
46876;BME280;32866;50.160;14.768;2022-09-09T07:25:57;99220.78;;;17.40;100.00
46876;BME280;32866;50.160;14.768;2022-09-09T07:28:23;99218.19;;;17.31;100.00
46876;BME280;32866;50.160;14.768;2022-09-09T07:33:25;99227.09;;;16.94;100.00
46876;BME280;32866;50.160;14.768;2022-09-09T07:35:51;99210.69;;;16.70;100.00
46876;BME280;32866;50.160;14.768;2022-09-09T07:38:17;99220.00;;;16.52;100.00
46876;BME280;32866;50.160;14.768;2022-09-09T07:40:43;99198.66;;;16.53;100.00
46876;BME280;32866;50.160;14.768;2022-09-09T07:43:09;99212.00;;;16.54;100.00
46876;BME280;32866;50.160;14.768;2022-09-09T07:45:35;99221.28;;;16.72;100.00
46876;BME280;32866;50.160;14.768;2022-09-09T07:48:01;99213.31;;;16.59;100.00
46876;BME280;32866;50.160;14.768;2022-09-09T07:50:26;99184.34;;;16.54;100.00
46876;BME280;32866;50.160;14.768;2022-09-09T07:52:52;99221.03;;;17.42;100.00
46876;BME280;32866;50.160;14.768;2022-09-09T07:55:19;99205.13;;;17.90;100.00
46876;BME280;32866;50.160;14.768;2022-09-09T07:57:44;99234.97;;;18.49;100.00
46876;BME280;32866;50.160;14.768;2022-09-09T08:00:10;99241.16;;;18.76;100.00
46876;BME280;32866;50.160;14.768;2022-09-09T08:02:35;99220.31;;;18.43;100.00
46876;BME280;32866;50.160;14.768;2022-09-09T08:05:01;99235.50;;;18.53;100.00
46876;BME280;32866;50.160;14.768;2022-09-09T08:07:26;99240.59;;;18.61;100.00
46876;BME280;32866;50.160;14.768;2022-09-09T08:09:52;99201.88;;;17.97;100.00
46876;BME280;32866;50.160;14.768;2022-09-09T08:12:19;99196.81;;;17.64;100.00
46876;BME280;32866;50.160;14.768;2022-09-09T08:14:44;99205.25;;;17.80;100.00
46876;BME280;32866;50.160;14.768;2022-09-09T08:17:10;99198.75;;;17.84;100.00
46876;BME280;32866;50.160;14.768;2022-09-09T08:19:35;99214.47;;;17.98;100.00
46876;BME280;32866;50.160;14.768;2022-09-09T08:22:02;99226.56;;;18.38;100.00
46876;BME280;32866;50.160;14.768;2022-09-09T08:24:27;99224.91;;;18.09;100.00
46876;BME280;32866;50.160;14.768;2022-09-09T08:26:53;99225.72;;;18.15;100.00
46876;BME280;32866;50.160;14.768;2022-09-09T08:29:19;99241.00;;;18.42;100.00
46876;BME280;32866;50.160;14.768;2022-09-09T08:31:47;99198.66;;;18.47;100.00
46876;BME280;32866;50.160;14.768;2022-09-09T08:34:13;99233.06;;;18.67;100.00
46876;BME280;32866;50.160;14.768;2022-09-09T08:36:39;99236.53;;;18.62;100.00
46876;BME280;32866;50.160;14.768;2022-09-09T08:39:07;99241.25;;;18.44;100.00
46876;BME280;32866;50.160;14.768;2022-09-09T08:49:29;99245.16;;;18.64;100.00
46876;BME280;32866;50.160;14.768;2022-09-09T08:52:02;99215.19;;;18.73;100.00
46876;BME280;32866;50.160;14.768;2022-09-09T08:54:32;99237.78;;;19.09;100.00
46876;BME280;32866;50.160;14.768;2022-09-09T08:56:58;99233.25;;;19.12;100.00
46876;BME280;32866;50.160;14.768;2022-09-09T08:59:24;99238.34;;;19.36;100.00
46876;BME280;32866;50.160;14.768;2022-09-09T09:01:51;99232.53;;;19.45;100.00
46876;BME280;32866;50.160;14.768;2022-09-09T09:04:33;99229.53;;;19.66;100.00
46876;BME280;32866;50.160;14.768;2022-09-09T09:07:11;99206.28;;;19.63;100.00
46876;BME280;32866;50.160;14.768;2022-09-09T09:10:02;99234.09;;;19.92;100.00
46876;BME280;32866;50.160;14.768;2022-09-09T09:12:27;99229.03;;;20.18;100.00
46876;BME280;32866;50.160;14.768;2022-09-09T09:14:54;99223.94;;;20.34;100.00
46876;BME280;32866;50.160;14.768;2022-09-09T09:17:23;99233.31;;;20.14;100.00
46876;BME280;32866;50.160;14.768;2022-09-09T09:19:50;99229.78;;;19.74;100.00
46876;BME280;32866;50.160;14.768;2022-09-09T09:22:19;99227.78;;;20.08;100.00
46876;BME280;32866;50.160;14.768;2022-09-09T09:25:08;99223.72;;;20.09;100.00
46876;BME280;32866;50.160;14.768;2022-09-09T09:27:44;99203.50;;;19.97;100.00
46876;BME280;32866;50.160;14.768;2022-09-09T09:30:19;99225.66;;;20.65;100.00
46876;BME280;32866;50.160;14.768;2022-09-09T09:32:56;99228.31;;;20.93;100.00
46876;BME280;32866;50.160;14.768;2022-09-09T09:35:23;99229.75;;;21.06;100.00
46876;BME280;32866;50.160;14.768;2022-09-09T09:37:49;99223.94;;;21.51;100.00
46876;BME280;32866;50.160;14.768;2022-09-09T09:40:17;99220.91;;;21.43;100.00
46876;BME280;32866;50.160;14.768;2022-09-09T09:43:01;99219.19;;;21.40;100.00
46876;BME280;32866;50.160;14.768;2022-09-09T09:45:33;99235.09;;;21.81;99.82
46876;BME280;32866;50.160;14.768;2022-09-09T09:48:01;99223.38;;;21.58;97.59
46876;BME280;32866;50.160;14.768;2022-09-09T09:50:28;99216.88;;;21.80;98.98
46876;BME280;32866;50.160;14.768;2022-09-09T09:53:04;99214.69;;;21.98;99.83
46876;BME280;32866;50.160;14.768;2022-09-09T09:55:33;99214.28;;;22.13;98.68
46876;BME280;32866;50.160;14.768;2022-09-09T09:58:05;99200.38;;;22.37;96.88
46876;BME280;32866;50.160;14.768;2022-09-09T10:00:32;99194.00;;;22.62;96.38
46876;BME280;32866;50.160;14.768;2022-09-09T10:03:00;99201.19;;;22.76;93.32
46876;BME280;32866;50.160;14.768;2022-09-09T10:05:28;99184.50;;;22.70;90.92
46876;BME280;32866;50.160;14.768;2022-09-09T10:08:26;99195.75;;;23.22;93.11
46876;BME280;32866;50.160;14.768;2022-09-09T10:14:18;99194.22;;;23.72;91.21
46876;BME280;32866;50.160;14.768;2022-09-09T10:19:29;99153.19;;;24.07;83.95
46876;BME280;32866;50.160;14.768;2022-09-09T10:34:55;99159.81;;;21.81;94.41
46876;BME280;32866;50.160;14.768;2022-09-09T10:40:20;99151.59;;;22.44;96.13
46876;BME280;32866;50.160;14.768;2022-09-09T10:42:51;99150.56;;;23.37;90.87
46876;BME280;32866;50.160;14.768;2022-09-09T10:45:21;99172.25;;;24.08;90.02
46876;BME280;32866;50.160;14.768;2022-09-09T10:48:13;99165.59;;;24.86;84.52
46876;BME280;32866;50.160;14.768;2022-09-09T10:50:55;99167.22;;;24.81;80.83
46876;BME280;32866;50.160;14.768;2022-09-09T10:56:15;99147.81;;;24.84;79.90
46876;BME280;32866;50.160;14.768;2022-09-09T10:58:46;99152.25;;;25.13;84.38
46876;BME280;32866;50.160;14.768;2022-09-09T11:01:18;99150.59;;;24.62;83.14
46876;BME280;32866;50.160;14.768;2022-09-09T11:03:51;99148.22;;;25.01;82.90
46876;BME280;32866;50.160;14.768;2022-09-09T11:06:25;99115.34;;;25.23;78.67
46876;BME280;32866;50.160;14.768;2022-09-09T11:08:54;99147.25;;;25.54;74.58
46876;BME280;32866;50.160;14.768;2022-09-09T11:11:39;99122.47;;;25.66;70.88
46876;BME280;32866;50.160;14.768;2022-09-09T11:14:19;99125.94;;;26.08;71.28
46876;BME280;32866;50.160;14.768;2022-09-09T11:16:52;99145.72;;;26.32;65.70
46876;BME280;32866;50.160;14.768;2022-09-09T11:19:26;99142.97;;;26.10;71.54
46876;BME280;32866;50.160;14.768;2022-09-09T11:21:53;99141.31;;;25.02;62.23
46876;BME280;32866;50.160;14.768;2022-09-09T11:24:25;99136.03;;;24.98;65.02
46876;BME280;32866;50.160;14.768;2022-09-09T11:26:57;99130.78;;;25.29;63.54
46876;BME280;32866;50.160;14.768;2022-09-09T11:40:30;99111.81;;;25.43;52.80
46876;BME280;32866;50.160;14.768;2022-09-09T11:43:14;99094.91;;;26.14;54.02
46876;BME280;32866;50.160;14.768;2022-09-09T11:45:41;99121.47;;;27.09;52.00
46876;BME280;32866;50.160;14.768;2022-09-09T11:48:31;99118.97;;;26.75;47.74
46876;BME280;32866;50.160;14.768;2022-09-09T11:53:51;99104.28;;;25.38;56.52
46876;BME280;32866;50.160;14.768;2022-09-09T11:56:44;99098.31;;;25.91;52.69
46876;BME280;32866;50.160;14.768;2022-09-09T11:59:26;99077.38;;;25.64;52.85
46876;BME280;32866;50.160;14.768;2022-09-09T12:02:10;99094.47;;;25.73;47.68
46876;BME280;32866;50.160;14.768;2022-09-09T12:04:43;99101.41;;;25.80;53.65
46876;BME280;32866;50.160;14.768;2022-09-09T12:10:02;99111.31;;;26.39;50.35
46876;BME280;32866;50.160;14.768;2022-09-09T12:15:20;99097.69;;;24.72;54.23
46876;BME280;32866;50.160;14.768;2022-09-09T12:17:48;99103.44;;;24.26;54.19
46876;BME280;32866;50.160;14.768;2022-09-09T12:25:58;99096.78;;;23.30;55.22
46876;BME280;32866;50.160;14.768;2022-09-09T12:31:36;99087.16;;;23.12;56.85
46876;BME280;32866;50.160;14.768;2022-09-09T12:36:58;99095.78;;;22.95;59.90
46876;BME280;32866;50.160;14.768;2022-09-09T12:39:35;99094.88;;;22.87;59.08
46876;BME280;32866;50.160;14.768;2022-09-09T12:42:02;99102.44;;;22.92;59.16
46876;BME280;32866;50.160;14.768;2022-09-09T12:44:29;99105.66;;;22.64;63.62
46876;BME280;32866;50.160;14.768;2022-09-09T12:46:56;99087.75;;;22.73;62.48
46876;BME280;32866;50.160;14.768;2022-09-09T12:52:02;99110.22;;;22.81;62.50
46876;BME280;32866;50.160;14.768;2022-09-09T12:54:31;99094.94;;;22.49;64.11
46876;BME280;32866;50.160;14.768;2022-09-09T12:56:57;99112.03;;;22.40;67.41
46876;BME280;32866;50.160;14.768;2022-09-09T12:59:36;99116.06;;;22.20;67.72
46876;BME280;32866;50.160;14.768;2022-09-09T13:02:02;99124.50;;;21.90;74.29
46876;BME280;32866;50.160;14.768;2022-09-09T13:04:36;99138.28;;;21.52;86.36
46876;BME280;32866;50.160;14.768;2022-09-09T13:07:06;99136.41;;;20.93;93.56
46876;BME280;32866;50.160;14.768;2022-09-09T13:09:32;99098.56;;;20.15;100.00
46876;BME280;32866;50.160;14.768;2022-09-09T13:11:57;99126.59;;;20.28;100.00
46876;BME280;32866;50.160;14.768;2022-09-09T13:14:32;99126.66;;;20.11;100.00
46876;BME280;32866;50.160;14.768;2022-09-09T13:17:01;99127.97;;;19.88;100.00
46876;BME280;32866;50.160;14.768;2022-09-09T13:19:32;99121.41;;;19.40;100.00
46876;BME280;32866;50.160;14.768;2022-09-09T13:21:58;99094.38;;;18.89;100.00
46876;BME280;32866;50.160;14.768;2022-09-09T13:24:31;99117.59;;;18.98;100.00
46876;BME280;32866;50.160;14.768;2022-09-09T13:27:00;99108.44;;;18.69;100.00
46876;BME280;32866;50.160;14.768;2022-09-09T13:29:30;99144.25;;;18.67;100.00
46876;BME280;32866;50.160;14.768;2022-09-09T13:32:17;99147.38;;;18.91;100.00
46876;BME280;32866;50.160;14.768;2022-09-09T13:37:39;99139.72;;;18.75;100.00
46876;BME280;32866;50.160;14.768;2022-09-09T13:40:14;99131.94;;;18.79;100.00
46876;BME280;32866;50.160;14.768;2022-09-09T13:42:42;99131.38;;;18.64;100.00
46876;BME280;32866;50.160;14.768;2022-09-09T13:45:28;99140.16;;;18.57;100.00
46876;BME280;32866;50.160;14.768;2022-09-09T13:47:54;99142.91;;;18.45;100.00
46876;BME280;32866;50.160;14.768;2022-09-09T13:50:28;99133.50;;;18.31;100.00
46876;BME280;32866;50.160;14.768;2022-09-09T13:52:58;99134.47;;;18.17;100.00
46876;BME280;32866;50.160;14.768;2022-09-09T13:58:01;99126.41;;;18.19;100.00
46876;BME280;32866;50.160;14.768;2022-09-09T14:00:32;99121.34;;;18.12;100.00
46876;BME280;32866;50.160;14.768;2022-09-09T14:02:58;99099.56;;;17.93;100.00
46876;BME280;32866;50.160;14.768;2022-09-09T14:05:26;99119.56;;;18.14;100.00
46876;BME280;32866;50.160;14.768;2022-09-09T14:07:52;99118.06;;;18.13;100.00
46876;BME280;32866;50.160;14.768;2022-09-09T14:10:17;99106.19;;;18.07;100.00
46876;BME280;32866;50.160;14.768;2022-09-09T14:12:42;99116.78;;;18.09;100.00
46876;BME280;32866;50.160;14.768;2022-09-09T14:15:10;99115.06;;;18.23;100.00
46876;BME280;32866;50.160;14.768;2022-09-09T14:17:35;99101.75;;;18.32;100.00
46876;BME280;32866;50.160;14.768;2022-09-09T14:20:01;99095.22;;;18.41;100.00
46876;BME280;32866;50.160;14.768;2022-09-09T14:22:27;99060.66;;;18.31;100.00
46876;BME280;32866;50.160;14.768;2022-09-09T14:24:53;99096.31;;;18.61;100.00
46876;BME280;32866;50.160;14.768;2022-09-09T14:27:18;99101.69;;;18.93;100.00
46876;BME280;32866;50.160;14.768;2022-09-09T14:29:44;99076.94;;;18.83;100.00
46876;BME280;32866;50.160;14.768;2022-09-09T14:32:10;99100.94;;;18.98;100.00
46876;BME280;32866;50.160;14.768;2022-09-09T14:34:35;99076.47;;;19.02;100.00